createdAt,value
2017-03-17T00:00:58.940Z,7.15
2017-03-17T00:01:58.953Z,7.24
2017-03-17T00:02:59.006Z,7.23
2017-03-17T00:03:59.021Z,7.07
2017-03-17T00:04:59.092Z,7.13
2017-03-17T00:05:59.102Z,7.09
2017-03-17T00:06:59.123Z,7.13
2017-03-17T00:07:59.177Z,7.22
2017-03-17T00:08:59.493Z,7.19
2017-03-17T00:09:59.558Z,7.08
2017-03-17T00:10:59.586Z,7.12
2017-03-17T00:11:59.288Z,7.13
2017-03-17T00:12:59.349Z,7.08
2017-03-17T00:13:59.356Z,7.13
2017-03-17T00:14:59.719Z,7.04
2017-03-17T00:15:59.448Z,7.12
2017-03-17T00:16:59.460Z,7.12
2017-03-17T00:17:59.492Z,7.05
2017-03-17T00:18:59.551Z,7.05
2017-03-17T00:19:59.582Z,7.02
2017-03-17T00:20:59.615Z,7.12
2017-03-17T00:21:59.632Z,7.05
2017-03-17T00:22:59.684Z,7.02
2017-03-17T00:24:00.002Z,7.05
2017-03-17T00:25:00.034Z,6.9
2017-03-17T00:25:59.788Z,6.95
2017-03-17T00:26:59.796Z,6.94
2017-03-17T00:27:59.854Z,6.91
2017-03-17T00:28:59.863Z,6.91
2017-03-17T00:30:00.228Z,7.02
2017-03-17T00:30:59.956Z,6.99
2017-03-17T00:31:59.991Z,6.87
2017-03-17T00:33:00.028Z,6.95
2017-03-17T00:34:00.055Z,7.01
2017-03-17T00:35:00.093Z,6.99
2017-03-17T00:36:00.440Z,6.89
2017-03-17T00:37:00.149Z,6.87
2017-03-17T00:38:00.474Z,6.9
2017-03-17T00:39:00.507Z,6.84
2017-03-17T00:40:00.267Z,6.98
2017-03-17T00:41:00.269Z,6.97
2017-03-17T00:42:00.308Z,6.89
2017-03-17T00:43:00.361Z,6.9
2017-03-17T00:44:00.378Z,6.89
2017-03-17T00:45:00.737Z,6.84
2017-03-17T00:46:00.770Z,6.97
2017-03-17T00:47:00.774Z,6.87
2017-03-17T00:48:00.530Z,6.89
2017-03-17T00:49:00.562Z,6.91
2017-03-17T00:50:00.910Z,6.94
2017-03-17T00:51:00.608Z,6.86
2017-03-17T00:52:00.659Z,6.89
2017-03-17T00:53:00.696Z,6.89
2017-03-17T00:54:00.731Z,6.94
2017-03-17T00:55:00.766Z,6.9
2017-03-17T00:56:00.800Z,6.98
2017-03-17T00:57:00.809Z,6.94
2017-03-17T00:58:00.866Z,6.94
2017-03-17T00:59:00.900Z,6.89
2017-03-17T01:00:01.212Z,6.89
2017-03-17T01:01:00.967Z,6.89
2017-03-17T01:02:01.003Z,6.91
2017-03-17T01:03:01.014Z,6.84
2017-03-17T01:04:01.380Z,6.84
2017-03-17T01:05:01.383Z,6.73
2017-03-17T01:06:01.137Z,6.84
2017-03-17T01:07:01.167Z,6.87
2017-03-17T01:08:01.196Z,6.76
2017-03-17T01:09:01.214Z,6.73
2017-03-17T01:10:01.581Z,6.83
2017-03-17T01:11:01.301Z,6.72
2017-03-17T01:12:01.615Z,6.69
2017-03-17T01:13:01.370Z,6.77
2017-03-17T01:14:01.382Z,6.69
2017-03-17T01:15:01.721Z,6.71
2017-03-17T01:16:01.476Z,6.66
2017-03-17T01:17:01.505Z,6.66
2017-03-17T01:18:01.543Z,6.63
2017-03-17T01:19:01.852Z,6.68
2017-03-17T01:20:01.609Z,6.54
2017-03-17T01:21:01.614Z,6.62
2017-03-17T01:22:01.673Z,6.56
2017-03-17T01:23:01.707Z,6.56
2017-03-17T01:24:01.741Z,6.61
2017-03-17T01:25:01.773Z,6.61
2017-03-17T01:26:01.782Z,6.54
2017-03-17T01:27:01.815Z,6.59
2017-03-17T01:28:01.873Z,6.59
2017-03-17T01:29:01.922Z,6.63
2017-03-17T01:30:02.219Z,6.65
2017-03-17T01:31:02.252Z,6.61
2017-03-17T01:32:02.004Z,6.61
2017-03-17T01:33:02.321Z,6.65
2017-03-17T01:34:02.354Z,6.59
2017-03-17T01:35:02.087Z,6.62
2017-03-17T01:36:02.444Z,6.65
2017-03-17T01:37:02.152Z,6.62
2017-03-17T01:38:02.183Z,6.62
2017-03-17T01:39:02.223Z,6.59
2017-03-17T01:40:02.250Z,6.62
2017-03-17T01:41:02.308Z,6.59
2017-03-17T01:42:02.315Z,6.62
2017-03-17T01:43:02.680Z,6.65
2017-03-17T01:44:02.409Z,6.58
2017-03-17T01:45:02.441Z,6.63
2017-03-17T01:46:02.451Z,6.58
2017-03-17T01:47:02.490Z,6.58
2017-03-17T01:48:02.848Z,6.63
2017-03-17T01:49:02.599Z,6.66
2017-03-17T01:50:02.584Z,6.63
2017-03-17T01:51:02.642Z,6.62
2017-03-17T01:52:02.652Z,6.65
2017-03-17T01:53:02.684Z,6.72
2017-03-17T01:54:03.023Z,6.68
2017-03-17T01:55:02.752Z,6.71
2017-03-17T01:56:02.788Z,6.66
2017-03-17T01:57:02.842Z,6.68
2017-03-17T01:58:02.875Z,6.61
2017-03-17T01:59:03.188Z,6.68
2017-03-17T02:00:02.943Z,6.68
2017-03-17T02:01:02.953Z,6.69
2017-03-17T02:02:03.620Z,6.61
2017-03-17T02:03:03.351Z,6.69
2017-03-17T02:04:03.052Z,6.59
2017-03-17T02:05:03.692Z,6.58
2017-03-17T02:06:03.447Z,6.62
2017-03-17T02:07:03.178Z,6.68
2017-03-17T02:08:03.814Z,6.63
2017-03-17T02:09:03.522Z,6.63
2017-03-17T02:10:03.556Z,6.61
2017-03-17T02:11:03.285Z,6.59
2017-03-17T02:12:03.653Z,6.59
2017-03-17T02:13:03.364Z,6.56
2017-03-17T02:14:03.724Z,6.58
2017-03-17T02:15:03.454Z,6.58
2017-03-17T02:16:03.453Z,6.56
2017-03-17T02:17:03.961Z,6.56
2017-03-17T02:18:03.822Z,6.58
2017-03-17T02:19:04.190Z,6.58
2017-03-17T02:20:03.614Z,6.54
2017-03-17T02:21:04.257Z,6.54
2017-03-17T02:22:03.995Z,6.62
2017-03-17T02:23:04.016Z,6.5
2017-03-17T02:24:03.743Z,6.54
2017-03-17T02:25:04.083Z,6.61
2017-03-17T02:26:03.800Z,6.48
2017-03-17T02:27:03.819Z,6.47
2017-03-17T02:28:03.853Z,6.44
2017-03-17T02:29:04.186Z,6.5
2017-03-17T02:30:04.249Z,6.41
2017-03-17T02:31:03.955Z,6.47
2017-03-17T02:32:03.988Z,6.44
2017-03-17T02:33:04.323Z,6.43
2017-03-17T02:34:04.080Z,6.5
2017-03-17T02:35:04.393Z,6.44
2017-03-17T02:36:04.477Z,6.56
2017-03-17T02:37:04.179Z,6.47
2017-03-17T02:38:04.824Z,6.53
2017-03-17T02:39:04.861Z,6.4
2017-03-17T02:40:04.584Z,6.36
2017-03-17T02:41:04.616Z,6.4
2017-03-17T02:42:04.345Z,6.41
2017-03-17T02:43:04.685Z,6.43
2017-03-17T02:44:04.411Z,6.36
2017-03-17T02:45:04.419Z,6.4
2017-03-17T02:46:04.782Z,6.35
2017-03-17T02:47:05.089Z,6.38
2017-03-17T02:48:04.546Z,6.36
2017-03-17T02:49:04.549Z,6.4
2017-03-17T02:50:04.584Z,6.28
2017-03-17T02:51:04.974Z,6.38
2017-03-17T02:52:04.676Z,6.43
2017-03-17T02:53:04.710Z,6.26
2017-03-17T02:54:04.718Z,6.21
2017-03-17T02:55:04.751Z,6.26
2017-03-17T02:56:04.840Z,6.33
2017-03-17T02:57:05.142Z,6.33
2017-03-17T02:58:05.152Z,6.33
2017-03-17T02:59:05.492Z,6.35
2017-03-17T03:00:05.223Z,6.38
2017-03-17T03:01:04.945Z,6.44
2017-03-17T03:02:04.982Z,6.4
2017-03-17T03:03:05.044Z,6.38
2017-03-17T03:04:05.048Z,6.41
2017-03-17T03:05:05.107Z,6.48
2017-03-17T03:06:05.115Z,6.46
2017-03-17T03:07:05.453Z,6.38
2017-03-17T03:08:05.511Z,6.44
2017-03-17T03:09:05.521Z,6.38
2017-03-17T03:10:05.552Z,6.38
2017-03-17T03:11:05.580Z,6.48
2017-03-17T03:12:05.616Z,6.44
2017-03-17T03:13:05.654Z,6.46
2017-03-17T03:14:06.024Z,6.43
2017-03-17T03:15:05.744Z,6.46
2017-03-17T03:16:05.782Z,6.4
2017-03-17T03:17:05.811Z,6.4
2017-03-17T03:18:05.850Z,6.4
2017-03-17T03:19:05.878Z,6.36
2017-03-17T03:20:06.218Z,6.32
2017-03-17T03:21:05.913Z,6.38
2017-03-17T03:22:05.654Z,6.41
2017-03-17T03:23:05.704Z,6.4
2017-03-17T03:24:06.018Z,6.43
2017-03-17T03:25:06.051Z,6.36
2017-03-17T03:26:06.113Z,6.32
2017-03-17T03:27:06.114Z,6.38
2017-03-17T03:28:06.155Z,6.38
2017-03-17T03:29:06.210Z,6.3
2017-03-17T03:30:05.913Z,6.33
2017-03-17T03:31:05.943Z,6.3
2017-03-17T03:32:05.979Z,6.36
2017-03-17T03:33:06.314Z,6.4
2017-03-17T03:34:06.378Z,6.3
2017-03-17T03:35:06.410Z,6.3
2017-03-17T03:36:06.414Z,6.35
2017-03-17T03:37:06.747Z,6.35
2017-03-17T03:38:06.814Z,6.41
2017-03-17T03:39:06.239Z,6.38
2017-03-17T03:40:06.271Z,6.35
2017-03-17T03:41:06.608Z,6.35
2017-03-17T03:42:06.318Z,6.33
2017-03-17T03:43:06.650Z,6.28
2017-03-17T03:44:06.985Z,6.33
2017-03-17T03:45:06.738Z,6.26
2017-03-17T03:46:06.444Z,6.26
2017-03-17T03:47:06.476Z,6.28
2017-03-17T03:48:06.813Z,6.25
2017-03-17T03:49:06.844Z,6.32
2017-03-17T03:50:06.574Z,6.38
2017-03-17T03:51:06.637Z,6.3
2017-03-17T03:52:06.974Z,6.32
2017-03-17T03:53:06.983Z,6.3
2017-03-17T03:54:06.710Z,6.3
2017-03-17T03:55:06.768Z,6.28
2017-03-17T03:56:07.105Z,6.25
2017-03-17T03:57:06.833Z,6.33
2017-03-17T03:58:07.148Z,6.21
2017-03-17T03:59:07.485Z,6.19
2017-03-17T04:00:06.931Z,6.25
2017-03-17T04:01:07.238Z,6.28
2017-03-17T04:02:06.997Z,6.25
2017-03-17T04:03:07.330Z,6.35
2017-03-17T04:04:07.370Z,6.32
2017-03-17T04:05:07.096Z,6.32
2017-03-17T04:06:07.130Z,6.29
2017-03-17T04:07:07.137Z,6.3
2017-03-17T04:08:07.782Z,6.3
2017-03-17T04:09:07.844Z,6.32
2017-03-17T04:10:07.260Z,6.35
2017-03-17T04:11:07.293Z,6.33
2017-03-17T04:12:07.306Z,6.29
2017-03-17T04:13:07.975Z,6.29
2017-03-17T04:14:07.391Z,6.28
2017-03-17T04:15:07.425Z,6.28
2017-03-17T04:16:07.463Z,6.25
2017-03-17T04:17:07.797Z,6.1
2017-03-17T04:18:07.859Z,6.18
2017-03-17T04:19:07.868Z,6.21
2017-03-17T04:20:07.570Z,6.09
2017-03-17T04:21:07.933Z,6.09
2017-03-17T04:22:07.715Z,6.13
2017-03-17T04:23:08.306Z,5.98
2017-03-17T04:24:08.004Z,5.98
2017-03-17T04:25:08.063Z,6
2017-03-17T04:26:07.766Z,5.89
2017-03-17T04:27:07.822Z,5.86
2017-03-17T04:28:08.139Z,5.85
2017-03-17T04:29:07.891Z,5.86
2017-03-17T04:30:08.217Z,5.83
2017-03-17T04:31:08.538Z,5.85
2017-03-17T04:32:08.295Z,5.96
2017-03-17T04:33:08.605Z,5.89
2017-03-17T04:34:08.638Z,5.96
2017-03-17T04:35:08.086Z,6
2017-03-17T04:36:08.096Z,5.91
2017-03-17T04:37:08.429Z,5.92
2017-03-17T04:38:08.463Z,5.95
2017-03-17T04:39:08.834Z,5.92
2017-03-17T04:40:08.571Z,5.81
2017-03-17T04:41:08.593Z,5.71
2017-03-17T04:42:08.625Z,5.6
2017-03-17T04:43:08.935Z,5.53
2017-03-17T04:44:08.689Z,5.59
2017-03-17T04:45:08.708Z,5.48
2017-03-17T04:46:08.425Z,5.49
2017-03-17T04:47:08.786Z,5.49
2017-03-17T04:48:09.100Z,5.37
2017-03-17T04:49:08.831Z,5.35
2017-03-17T04:50:08.553Z,5.4
2017-03-17T04:51:08.615Z,5.32
2017-03-17T04:52:08.954Z,5.34
2017-03-17T04:53:08.957Z,5.35
2017-03-17T04:54:08.999Z,5.43
2017-03-17T04:55:08.745Z,5.38
2017-03-17T04:56:08.778Z,5.46
2017-03-17T04:57:09.421Z,5.48
2017-03-17T04:58:08.841Z,5.49
2017-03-17T04:59:09.459Z,5.63
2017-03-17T05:00:09.186Z,5.55
2017-03-17T05:01:08.931Z,5.56
2017-03-17T05:02:09.307Z,5.53
2017-03-17T05:03:09.591Z,5.64
2017-03-17T05:04:09.040Z,5.49
2017-03-17T05:05:09.048Z,5.53
2017-03-17T05:06:09.080Z,5.49
2017-03-17T05:07:09.444Z,5.46
2017-03-17T05:08:09.446Z,5.41
2017-03-17T05:09:09.203Z,5.37
2017-03-17T05:10:09.542Z,5.31
2017-03-17T05:11:09.269Z,5.37
2017-03-17T05:12:09.879Z,5.31
2017-03-17T05:13:09.637Z,5.46
2017-03-17T05:14:09.640Z,5.45
2017-03-17T05:15:09.706Z,5.37
2017-03-17T05:16:09.738Z,5.38
2017-03-17T05:17:09.771Z,5.5
2017-03-17T05:18:09.807Z,5.55
2017-03-17T05:19:10.139Z,5.53
2017-03-17T05:20:09.538Z,5.59
2017-03-17T05:21:09.599Z,5.67
2017-03-17T05:22:09.939Z,5.66
2017-03-17T05:23:10.280Z,5.71
2017-03-17T05:24:09.999Z,5.88
2017-03-17T05:25:10.005Z,5.92
2017-03-17T05:26:10.040Z,5.91
2017-03-17T05:27:09.793Z,6.07
2017-03-17T05:28:10.406Z,6.1
2017-03-17T05:29:10.473Z,6.11
2017-03-17T05:30:09.869Z,6.16
2017-03-17T05:31:10.542Z,6.33
2017-03-17T05:32:09.955Z,6.25
2017-03-17T05:33:10.295Z,6.36
2017-03-17T05:34:10.301Z,6.5
2017-03-17T05:35:10.029Z,6.53
2017-03-17T05:36:10.089Z,6.68
2017-03-17T05:37:10.437Z,6.81
2017-03-17T05:38:10.433Z,6.81
2017-03-17T05:39:10.808Z,7.02
2017-03-17T05:40:10.221Z,7.05
2017-03-17T05:41:10.254Z,7.2
2017-03-17T05:42:10.266Z,7.19
2017-03-17T05:43:10.911Z,7.23
2017-03-17T05:44:10.668Z,7.41
2017-03-17T05:45:10.967Z,7.53
2017-03-17T05:46:10.731Z,7.55
2017-03-17T05:47:10.737Z,7.62
2017-03-17T05:48:10.475Z,7.75
2017-03-17T05:49:10.833Z,7.79
2017-03-17T05:50:10.561Z,7.87
2017-03-17T05:51:10.577Z,7.94
2017-03-17T05:52:10.600Z,7.96
2017-03-17T05:53:10.979Z,8.07
2017-03-17T05:54:11.001Z,8.17
2017-03-17T05:55:10.713Z,8.29
2017-03-17T05:56:11.617Z,8.33
2017-03-17T05:57:10.797Z,8.47
2017-03-17T05:58:11.144Z,8.47
2017-03-17T05:59:11.146Z,8.6
2017-03-17T06:00:11.209Z,8.71
2017-03-17T06:01:10.912Z,8.78
2017-03-17T06:02:10.950Z,8.86
2017-03-17T06:03:11.586Z,9.01
2017-03-17T06:04:11.018Z,9.09
2017-03-17T06:05:11.076Z,9.1
2017-03-17T06:06:11.085Z,9.16
2017-03-17T06:07:11.120Z,9.31
2017-03-17T06:08:11.488Z,9.39
2017-03-17T06:09:11.493Z,9.45
2017-03-17T06:10:11.525Z,9.6
2017-03-17T06:11:11.561Z,9.53
2017-03-17T06:12:11.601Z,9.7
2017-03-17T06:13:11.662Z,9.75
2017-03-17T06:14:11.698Z,9.83
2017-03-17T06:15:11.401Z,9.86
2017-03-17T06:16:11.444Z,10.01
2017-03-17T06:17:11.801Z,10.03
2017-03-17T06:18:11.508Z,10.18
2017-03-17T06:19:11.854Z,10.21
2017-03-17T06:20:11.908Z,10.37
2017-03-17T06:21:12.218Z,10.46
2017-03-17T06:22:11.949Z,10.6
2017-03-17T06:23:11.997Z,10.68
2017-03-17T06:24:12.327Z,10.86
2017-03-17T06:25:12.060Z,10.88
2017-03-17T06:26:12.123Z,11.01
2017-03-17T06:27:12.159Z,11.27
2017-03-17T06:28:12.171Z,11.41
2017-03-17T06:29:12.202Z,11.65
2017-03-17T06:30:11.937Z,12.01
2017-03-17T06:31:12.021Z,12.29
2017-03-17T06:32:12.034Z,12.69
2017-03-17T06:33:12.503Z,12.99
2017-03-17T06:34:12.097Z,13.2
2017-03-17T06:35:12.121Z,13.52
2017-03-17T06:36:12.764Z,13.91
2017-03-17T06:37:18.009Z,14.16
2017-03-17T06:38:18.268Z,14.13
2017-03-17T06:39:12.574Z,14.17
2017-03-17T06:40:12.617Z,14.14
2017-03-17T06:41:12.654Z,14.27
2017-03-17T06:42:12.692Z,14.28
2017-03-17T06:43:17.670Z,14.35
2017-03-17T06:44:17.811Z,14.52
2017-03-17T06:45:15.599Z,14.5
2017-03-17T06:46:12.545Z,14.72
2017-03-17T06:47:16.065Z,14.88
2017-03-17T06:48:12.619Z,14.9
2017-03-17T06:49:16.092Z,15.06
2017-03-17T06:50:17.278Z,15.41
2017-03-17T06:51:16.086Z,15.84
2017-03-17T06:52:14.867Z,16.06
2017-03-17T06:53:13.687Z,16.4
2017-03-17T06:54:12.852Z,16.89
2017-03-17T06:55:12.892Z,17.3
2017-03-17T06:56:13.068Z,17.73
2017-03-17T06:57:13.286Z,17.88
2017-03-17T06:58:13.621Z,17.89
2017-03-17T06:59:13.354Z,17.89
2017-03-17T07:00:13.420Z,17.87
2017-03-17T07:01:13.431Z,18.03
2017-03-17T07:02:13.521Z,18.18
2017-03-17T07:03:13.859Z,18.47
2017-03-17T07:04:13.918Z,18.65
2017-03-17T07:05:13.605Z,18.73
2017-03-17T07:06:13.635Z,18.79
2017-03-17T07:07:13.434Z,18.64
2017-03-17T07:08:13.720Z,18.27
2017-03-17T07:09:14.062Z,18.04
2017-03-17T07:10:13.799Z,17.74
2017-03-17T07:11:14.140Z,17.51
2017-03-17T07:12:13.602Z,17.48
2017-03-17T07:13:13.662Z,17.43
2017-03-17T07:14:14.017Z,17.33
2017-03-17T07:15:14.037Z,17.38
2017-03-17T07:16:14.081Z,17.3
2017-03-17T07:17:13.903Z,17.5
2017-03-17T07:18:14.122Z,17.63
2017-03-17T07:19:14.480Z,17.7
2017-03-17T07:20:13.927Z,17.88
2017-03-17T07:21:13.966Z,18.03
2017-03-17T07:22:14.410Z,18.34
2017-03-17T07:23:14.388Z,18.67
2017-03-17T07:24:14.369Z,18.79
2017-03-17T07:25:14.796Z,19.1
2017-03-17T07:26:14.641Z,19.15
2017-03-17T07:27:14.213Z,19.33
2017-03-17T07:28:14.584Z,19.38
2017-03-17T07:29:14.380Z,19.42
2017-03-17T07:30:14.350Z,19.57
2017-03-17T07:31:14.885Z,19.48
2017-03-17T07:32:14.700Z,19.63
2017-03-17T07:33:14.761Z,19.75
2017-03-17T07:34:14.501Z,19.86
2017-03-17T07:35:14.616Z,19.86
2017-03-17T07:36:14.594Z,19.95
2017-03-17T07:37:14.655Z,19.88
2017-03-17T07:38:14.945Z,19.8
2017-03-17T07:39:15.297Z,19.68
2017-03-17T07:40:14.755Z,19.6
2017-03-17T07:41:14.787Z,19.46
2017-03-17T07:42:15.154Z,19.47
2017-03-17T07:43:15.177Z,19.35
2017-03-17T07:44:15.535Z,19.36
2017-03-17T07:45:15.242Z,19.39
2017-03-17T07:46:16.030Z,19.33
2017-03-17T07:47:15.020Z,19.2
2017-03-17T07:48:15.737Z,19.14
2017-03-17T07:49:15.499Z,19.01
2017-03-17T07:50:16.064Z,18.82
2017-03-17T07:51:15.187Z,18.68
2017-03-17T07:52:15.538Z,18.46
2017-03-17T07:53:15.575Z,18.33
2017-03-17T07:54:15.617Z,18.12
2017-03-17T07:55:15.357Z,18.06
2017-03-17T07:56:15.696Z,17.92
2017-03-17T07:57:15.436Z,17.71
2017-03-17T07:58:16.116Z,17.54
2017-03-17T07:59:15.916Z,17.43
2017-03-17T08:00:16.205Z,17.29
2017-03-17T08:01:15.627Z,17.15
2017-03-17T08:02:15.958Z,17.06
2017-03-17T08:03:16.171Z,16.89
2017-03-17T08:04:16.367Z,16.88
2017-03-17T08:05:15.760Z,16.83
2017-03-17T08:06:15.890Z,16.89
2017-03-17T08:07:15.852Z,16.83
2017-03-17T08:08:15.884Z,16.81
2017-03-17T08:09:16.231Z,16.8
2017-03-17T08:10:15.986Z,16.88
2017-03-17T08:11:16.073Z,16.83
2017-03-17T08:12:16.068Z,16.99
2017-03-17T08:13:16.728Z,16.85
2017-03-17T08:14:16.730Z,17
2017-03-17T08:15:16.186Z,17.17
2017-03-17T08:16:16.232Z,17.4
2017-03-17T08:17:16.549Z,17.51
2017-03-17T08:18:17.124Z,17.71
2017-03-17T08:19:16.702Z,17.87
2017-03-17T08:20:16.370Z,18.07
2017-03-17T08:21:16.752Z,18.13
2017-03-17T08:22:17.055Z,18.24
2017-03-17T08:23:17.122Z,18.4
2017-03-17T08:24:17.177Z,18.61
2017-03-17T08:25:16.613Z,18.62
2017-03-17T08:26:16.616Z,18.73
2017-03-17T08:27:16.685Z,18.82
2017-03-17T08:28:16.737Z,18.8
2017-03-17T08:29:17.087Z,19.13
2017-03-17T08:30:16.811Z,19.33
2017-03-17T08:31:16.831Z,19.53
2017-03-17T08:32:17.234Z,19.68
2017-03-17T08:33:16.916Z,19.79
2017-03-17T08:34:17.257Z,19.87
2017-03-17T08:35:17.331Z,19.69
2017-03-17T08:36:17.037Z,19.61
2017-03-17T08:37:17.092Z,19.65
2017-03-17T08:38:17.141Z,19.54
2017-03-17T08:39:17.513Z,19.55
2017-03-17T08:40:17.239Z,19.48
2017-03-17T08:41:17.698Z,19.28
2017-03-17T08:42:17.601Z,19.36
2017-03-17T08:43:17.714Z,19.2
2017-03-17T08:44:17.683Z,19.24
2017-03-17T08:45:18.042Z,19.24
2017-03-17T08:46:17.640Z,19.28
2017-03-17T08:47:17.503Z,19.33
2017-03-17T08:48:17.893Z,19.31
2017-03-17T08:49:17.593Z,19.2
2017-03-17T08:50:17.962Z,19.15
2017-03-17T08:51:17.692Z,18.91
2017-03-17T08:52:18.052Z,18.79
2017-03-17T08:53:17.762Z,18.65
2017-03-17T08:54:18.413Z,18.49
2017-03-17T08:55:18.184Z,18.44
2017-03-17T08:56:17.913Z,18.29
2017-03-17T08:57:17.977Z,18.18
2017-03-17T08:58:18.309Z,18.04
2017-03-17T08:59:18.312Z,17.82
2017-03-17T09:00:18.125Z,17.82
2017-03-17T09:01:18.088Z,17.66
2017-03-17T09:02:18.224Z,17.53
2017-03-17T09:03:18.235Z,17.38
2017-03-17T09:04:18.554Z,17.2
2017-03-17T09:05:18.736Z,17.18
2017-03-17T09:06:18.297Z,17.06
2017-03-17T09:07:19.130Z,16.95
2017-03-17T09:08:18.711Z,16.8
2017-03-17T09:09:18.433Z,16.89
2017-03-17T09:10:18.499Z,16.73
2017-03-17T09:11:18.540Z,16.68
2017-03-17T09:12:18.707Z,16.6
2017-03-17T09:13:19.190Z,16.56
2017-03-17T09:14:18.712Z,16.42
2017-03-17T09:15:18.715Z,16.31
2017-03-17T09:16:18.726Z,16.26
2017-03-17T09:17:18.859Z,16.18
2017-03-17T09:18:19.087Z,16.18
2017-03-17T09:19:18.880Z,16.09
2017-03-17T09:20:19.715Z,15.94
2017-03-17T09:21:19.237Z,15.99
2017-03-17T09:22:18.937Z,15.93
2017-03-17T09:23:19.280Z,15.94
2017-03-17T09:24:23.421Z,15.7
2017-03-17T09:25:20.006Z,15.63
2017-03-17T09:26:19.406Z,15.59
2017-03-17T09:27:19.142Z,15.51
2017-03-17T09:28:19.835Z,15.38
2017-03-17T09:29:22.510Z,15.27
2017-03-17T09:30:19.250Z,15.3
2017-03-17T09:31:19.626Z,15.23
2017-03-17T09:32:19.636Z,15.03
2017-03-17T09:33:19.709Z,15.05
2017-03-17T09:34:20.118Z,15.12
2017-03-17T09:35:20.116Z,15.05
2017-03-17T09:36:20.572Z,15.01
2017-03-17T09:37:19.832Z,14.94
2017-03-17T09:38:20.354Z,14.93
2017-03-17T09:39:19.609Z,14.87
2017-03-17T09:40:20.407Z,14.91
2017-03-17T09:41:21.133Z,14.84
2017-03-17T09:42:20.022Z,14.87
2017-03-17T09:43:20.389Z,14.74
2017-03-17T09:44:21.486Z,14.75
2017-03-17T09:45:22.175Z,14.84
2017-03-17T09:46:19.876Z,14.71
2017-03-17T09:47:20.949Z,14.71
2017-03-17T09:48:21.355Z,14.71
2017-03-17T09:49:20.307Z,14.75
2017-03-17T09:50:21.289Z,14.67
2017-03-17T09:51:20.332Z,14.65
2017-03-17T09:52:20.410Z,14.61
2017-03-17T09:53:20.448Z,14.6
2017-03-17T09:54:20.519Z,14.61
2017-03-17T09:55:20.558Z,14.62
2017-03-17T09:56:20.585Z,14.61
2017-03-17T09:57:20.303Z,14.64
2017-03-17T09:58:20.642Z,14.57
2017-03-17T09:59:20.712Z,14.64
2017-03-17T10:00:20.757Z,14.69
2017-03-17T10:01:20.788Z,14.67
2017-03-17T10:02:20.523Z,14.64
2017-03-17T10:03:20.872Z,14.62
2017-03-17T10:04:20.906Z,14.6
2017-03-17T10:05:20.819Z,14.53
2017-03-17T10:06:20.649Z,14.54
2017-03-17T10:07:21.016Z,14.47
2017-03-17T10:08:21.057Z,14.5
2017-03-17T10:09:20.787Z,14.46
2017-03-17T10:10:20.827Z,14.5
2017-03-17T10:11:21.172Z,14.49
2017-03-17T10:12:20.894Z,14.52
2017-03-17T10:13:21.543Z,14.34
2017-03-17T10:14:21.598Z,14.37
2017-03-17T10:15:21.423Z,14.44
2017-03-17T10:16:21.361Z,14.38
2017-03-17T10:17:21.701Z,14.42
2017-03-17T10:18:21.790Z,14.43
2017-03-17T10:19:21.479Z,14.42
2017-03-17T10:20:21.208Z,14.42
2017-03-17T10:21:21.530Z,14.38
2017-03-17T10:22:21.267Z,14.35
2017-03-17T10:23:21.322Z,14.39
2017-03-17T10:24:21.670Z,14.37
2017-03-17T10:25:21.686Z,14.31
2017-03-17T10:26:21.461Z,14.34
2017-03-17T10:27:21.508Z,14.27
2017-03-17T10:28:21.933Z,14.31
2017-03-17T10:29:21.532Z,14.31
2017-03-17T10:30:21.869Z,14.24
2017-03-17T10:31:22.194Z,14.27
2017-03-17T10:32:21.673Z,14.37
2017-03-17T10:33:21.984Z,14.27
2017-03-17T10:34:22.054Z,14.24
2017-03-17T10:35:21.785Z,14.2
2017-03-17T10:36:21.822Z,14.25
2017-03-17T10:37:22.041Z,14.31
2017-03-17T10:38:21.872Z,14.2
2017-03-17T10:39:22.513Z,14.29
2017-03-17T10:40:21.951Z,14.29
2017-03-17T10:41:22.317Z,14.28
2017-03-17T10:42:22.360Z,14.31
2017-03-17T10:43:22.418Z,14.27
2017-03-17T10:44:22.774Z,14.21
2017-03-17T10:45:22.138Z,14.27
2017-03-17T10:46:22.179Z,14.31
2017-03-17T10:47:22.525Z,14.25
2017-03-17T10:48:22.971Z,14.25
2017-03-17T10:49:22.597Z,14.29
2017-03-17T10:50:22.330Z,14.17
2017-03-17T10:51:22.395Z,14.21
2017-03-17T10:52:22.405Z,14.31
2017-03-17T10:53:23.664Z,14.17
2017-03-17T10:54:22.856Z,14.27
2017-03-17T10:55:22.541Z,14.29
2017-03-17T10:56:22.667Z,14.32
2017-03-17T10:57:23.280Z,14.34
2017-03-17T10:58:22.946Z,14.42
2017-03-17T10:59:22.705Z,14.5
2017-03-17T11:00:22.750Z,14.52
2017-03-17T11:01:23.079Z,14.62
2017-03-17T11:02:22.810Z,14.68
2017-03-17T11:03:23.137Z,14.61
2017-03-17T11:04:23.168Z,14.71
2017-03-17T11:05:23.233Z,14.78
2017-03-17T11:06:23.445Z,14.88
2017-03-17T11:07:22.995Z,14.83
2017-03-17T11:08:23.365Z,14.9
2017-03-17T11:09:23.364Z,14.9
2017-03-17T11:10:23.410Z,14.91
2017-03-17T11:11:23.162Z,14.91
2017-03-17T11:12:23.481Z,15.01
2017-03-17T11:13:24.123Z,15.11
2017-03-17T11:14:23.868Z,15.11
2017-03-17T11:15:23.603Z,15.02
2017-03-17T11:16:23.636Z,15.2
2017-03-17T11:17:23.680Z,15.26
2017-03-17T11:18:23.741Z,15.3
2017-03-17T11:19:23.448Z,15.39
2017-03-17T11:20:23.794Z,15.36
2017-03-17T11:21:23.584Z,15.35
2017-03-17T11:22:23.889Z,15.42
2017-03-17T11:23:23.967Z,15.43
2017-03-17T11:24:23.751Z,15.48
2017-03-17T11:25:23.722Z,15.43
2017-03-17T11:26:24.148Z,15.42
2017-03-17T11:27:24.404Z,15.46
2017-03-17T11:28:24.445Z,15.41
2017-03-17T11:29:24.478Z,15.42
2017-03-17T11:30:24.496Z,15.36
2017-03-17T11:31:23.978Z,15.42
2017-03-17T11:32:24.005Z,15.42
2017-03-17T11:33:24.435Z,15.45
2017-03-17T11:34:24.076Z,15.43
2017-03-17T11:35:24.105Z,15.63
2017-03-17T11:36:24.488Z,15.78
2017-03-17T11:37:24.468Z,15.97
2017-03-17T11:38:24.235Z,16.09
2017-03-17T11:39:24.575Z,16.15
2017-03-17T11:40:24.637Z,16.23
2017-03-17T11:41:24.345Z,16.34
2017-03-17T11:42:24.364Z,16.5
2017-03-17T11:43:24.758Z,16.52
2017-03-17T11:44:24.775Z,16.55
2017-03-17T11:45:24.496Z,16.75
2017-03-17T11:46:24.530Z,16.86
2017-03-17T11:47:24.616Z,16.9
2017-03-17T11:48:25.282Z,17.08
2017-03-17T11:49:25.003Z,17.06
2017-03-17T11:50:24.693Z,17.04
2017-03-17T11:51:24.755Z,17.07
2017-03-17T11:52:25.381Z,17.04
2017-03-17T11:53:25.464Z,16.98
2017-03-17T11:54:24.870Z,16.99
2017-03-17T11:55:25.548Z,16.98
2017-03-17T11:56:24.941Z,16.98
2017-03-17T11:57:25.310Z,16.83
2017-03-17T11:58:25.640Z,16.8
2017-03-17T11:59:25.701Z,16.77
2017-03-17T12:00:25.435Z,16.52
2017-03-17T12:01:25.170Z,16.53
2017-03-17T12:02:25.517Z,16.42
2017-03-17T12:03:25.537Z,16.33
2017-03-17T12:04:25.305Z,16.34
2017-03-17T12:05:25.329Z,16.18
2017-03-17T12:06:25.353Z,16.12
2017-03-17T12:07:25.693Z,16.12
2017-03-17T12:08:26.039Z,16.11
2017-03-17T12:09:25.468Z,16.01
2017-03-17T12:10:25.536Z,15.97
2017-03-17T12:11:25.879Z,15.94
2017-03-17T12:12:25.897Z,16.01
2017-03-17T12:13:25.962Z,15.94
2017-03-17T12:14:25.983Z,15.96
2017-03-17T12:15:25.731Z,15.89
2017-03-17T12:16:26.076Z,15.94
2017-03-17T12:17:26.113Z,15.96
2017-03-17T12:18:26.134Z,16
2017-03-17T12:19:26.477Z,15.92
2017-03-17T12:20:26.235Z,15.89
2017-03-17T12:21:25.946Z,15.88
2017-03-17T12:22:26.326Z,15.89
2017-03-17T12:23:26.665Z,15.86
2017-03-17T12:24:26.368Z,15.76
2017-03-17T12:25:26.511Z,15.76
2017-03-17T12:26:26.147Z,15.74
2017-03-17T12:27:26.488Z,15.67
2017-03-17T12:28:26.531Z,15.76
2017-03-17T12:29:26.571Z,15.76
2017-03-17T12:30:26.303Z,15.68
2017-03-17T12:31:26.643Z,15.78
2017-03-17T12:32:26.389Z,15.88
2017-03-17T12:33:27.061Z,15.86
2017-03-17T12:34:26.792Z,15.86
2017-03-17T12:35:26.808Z,15.92
2017-03-17T12:36:26.541Z,15.86
2017-03-17T12:37:26.887Z,15.89
2017-03-17T12:38:26.926Z,15.74
2017-03-17T12:39:27.299Z,15.78
2017-03-17T12:40:26.699Z,15.88
2017-03-17T12:41:26.748Z,15.92
2017-03-17T12:42:26.775Z,15.99
2017-03-17T12:43:26.833Z,15.97
2017-03-17T12:44:27.188Z,16.04
2017-03-17T12:45:27.228Z,15.97
2017-03-17T12:46:26.934Z,15.99
2017-03-17T12:47:27.000Z,16.01
2017-03-17T12:48:27.656Z,16.04
2017-03-17T12:49:27.658Z,16.09
2017-03-17T12:50:27.112Z,16.04
2017-03-17T12:51:27.132Z,16.09
2017-03-17T12:52:27.477Z,16.03
2017-03-17T12:53:27.520Z,16
2017-03-17T12:54:27.591Z,15.88
2017-03-17T12:55:27.592Z,15.84
2017-03-17T12:56:27.662Z,15.74
2017-03-17T12:57:27.375Z,15.61
2017-03-17T12:58:28.019Z,15.61
2017-03-17T12:59:28.059Z,15.56
2017-03-17T13:00:27.491Z,15.41
2017-03-17T13:01:27.539Z,15.46
2017-03-17T13:02:27.592Z,15.33
2017-03-17T13:03:28.250Z,15.36
2017-03-17T13:04:28.282Z,15.38
2017-03-17T13:05:27.692Z,15.3
2017-03-17T13:06:27.725Z,15.23
2017-03-17T13:07:27.790Z,15.24
2017-03-17T13:08:28.449Z,15.26